Weather History for KONA - April, 2013

Change the Weather History Date:

Thursday, April 4, 2013

  Actual Average Record
Temperature  
Mean Temperature 42 °F -  
Max Temperature 51 °F 54 °F 77 °F (2005)
Min Temperature 32 °F 31 °F 19 °F (2007)
Degree Days  
Heating Degree Days 23    
Moisture  
Dew Point 24 °F    
Average Humidity 52    
Maximum Humidity 75    
Minimum Humidity 35    
Precipitation  
Precipitation 0.00 in - - ()
Sea Level Pressure  
Sea Level Pressure 30.08 in    
Wind  
Wind Speed 8 mph (West)    
Max Wind Speed 17 mph    
Max Gust Speed 22 mph    
Visibility 10 miles    
Events Rain    
Averages and records for this station are not official NWS values.
T = Trace of Precipitation, MM = Missing Value Source: NWS Daily Summary

Daily Weather History Graph

Daily Weather History Graph

Search for Another Location

Airport or City:

Trip Planner

Search our weather history database for the weather conditions in past years. The results will help you decide how hot, cold, wet, or windy it might be!

Date:

Astronomy

Apr. 04, 2013 Rise Set
Actual Time 6:42 AM CDT 7:37 PM CDT
Civil Twilight 6:12 AM CDT 8:07 PM CDT
Nautical Twilight 5:37 AM CDT 8:42 PM CDT
Astronomical Twilight 5:01 AM CDT 9:19 PM CDT
Moon 3:21 AM CDT (4/4) 1:45 PM CDT (4/4)
Length of Visible Light 13h 54m
Length of Day
12h 55m
Waning Crescent, 33% of the Moon is Illuminated
Apr 4
Waning Crescent
Apr 10
New
Apr 18
First Quarter
Apr 25
Full
May 2
Last Quarter

Hourly Weather History & Observations

Time (CDT) Temp. Windchill Dew Point Humidity Pressure Visibility Wind Dir Wind Speed Gust Speed Precip Events Conditions
12:17 AM 37.4 °F 30.3 °F 17.6 °F 45% 30.16 in 10.0 mi SSW 10.4 mph - N/A   Clear
12:36 AM 37.4 °F 30.3 °F 17.6 °F 45% 30.15 in 10.0 mi SSW 10.4 mph 17.3 mph N/A   Clear
12:57 AM 37.4 °F 30.3 °F 17.6 °F 45% - 10.0 mi SW 10.4 mph 17.3 mph N/A   Clear
1:17 AM 37.4 °F 29.8 °F 17.6 °F 45% 30.14 in 10.0 mi SW 11.5 mph 17.3 mph N/A   Clear
1:36 AM 37.4 °F 29.8 °F 17.6 °F 45% 30.13 in 10.0 mi SW 11.5 mph 17.3 mph N/A   Clear
1:57 AM 37.4 °F 29.3 °F 17.6 °F 45% 30.13 in 10.0 mi SW 12.7 mph 21.9 mph N/A   Clear
2:17 AM 37.4 °F 29.3 °F 17.6 °F 45% 30.13 in 10.0 mi SW 12.7 mph 20.7 mph N/A   Clear
2:37 AM 37.4 °F 31.4 °F 17.6 °F 45% 30.13 in 10.0 mi SW 8.1 mph 18.4 mph N/A   Clear
2:57 AM 37.4 °F 32.1 °F 17.6 °F 45% 30.13 in 10.0 mi SSW 6.9 mph - N/A   Clear
3:16 AM 37.4 °F 31.4 °F 17.6 °F 45% 30.12 in 10.0 mi SW 8.1 mph 20.7 mph N/A   Clear
3:37 AM 37.4 °F 29.8 °F 17.6 °F 45% - 10.0 mi SW 11.5 mph 17.3 mph N/A   Clear
3:57 AM 37.4 °F 29.8 °F 17.6 °F 45% 30.12 in 10.0 mi SSW 11.5 mph - N/A   Clear
4:17 AM 37.4 °F 33.8 °F 17.6 °F 45% 30.12 in 10.0 mi WSW 4.6 mph - N/A   Clear
4:37 AM 37.4 °F 32.1 °F 17.6 °F 45% 30.11 in 10.0 mi SW 6.9 mph - N/A   Clear
4:57 AM 37.4 °F 32.8 °F 19.4 °F 48% 30.11 in 10.0 mi SW 5.8 mph - N/A   Clear
5:17 AM 37.4 °F 32.8 °F 19.4 °F 48% 30.09 in 10.0 mi SSW 5.8 mph - N/A   Clear
5:37 AM 37.4 °F - 19.4 °F 48% 30.09 in 10.0 mi Calm Calm - N/A   Clear
5:57 AM 37.4 °F 34.9 °F 19.4 °F 48% 30.09 in 10.0 mi WSW 3.5 mph - N/A   Clear
6:16 AM 37.4 °F 33.8 °F 21.2 °F 52% 30.08 in 10.0 mi WSW 4.6 mph - N/A   Clear
6:37 AM 37.4 °F 33.8 °F 21.2 °F 52% 30.08 in 10.0 mi WSW 4.6 mph - N/A   Clear
6:57 AM 37.4 °F 32.8 °F 21.2 °F 52% 30.08 in 10.0 mi SW 5.8 mph - N/A   Clear
7:16 AM 37.4 °F - 21.2 °F 52% 30.08 in 10.0 mi Calm Calm - N/A   Clear
7:37 AM 37.4 °F 32.1 °F 21.2 °F 52% 30.07 in 10.0 mi SW 6.9 mph - N/A   Clear
7:56 AM 37.4 °F 33.8 °F 21.2 °F 52% 30.07 in 10.0 mi West 4.6 mph - N/A   Scattered Clouds
8:17 AM 37.4 °F 32.1 °F 23.0 °F 56% 30.07 in 10.0 mi West 6.9 mph - N/A   Scattered Clouds
8:37 AM 39.2 °F 35.0 °F 23.0 °F 52% 30.07 in 10.0 mi WSW 5.8 mph - N/A   Scattered Clouds
8:56 AM 41.0 °F 34.7 °F 23.0 °F 49% 30.05 in 10.0 mi WSW 10.4 mph - N/A   Scattered Clouds
9:17 AM 41.0 °F 34.7 °F 24.8 °F 53% 30.05 in 10.0 mi West 10.4 mph 20.7 mph N/A   Mostly Cloudy
9:37 AM 41.0 °F 34.3 °F 24.8 °F 53% 30.05 in 10.0 mi West 11.5 mph - N/A   Mostly Cloudy
9:56 AM 41.0 °F 34.3 °F 26.6 °F 57% 30.05 in 10.0 mi West 11.5 mph 16.1 mph N/A   Overcast
10:17 AM 41.0 °F 35.2 °F 26.6 °F 57% 30.05 in 10.0 mi WSW 9.2 mph 16.1 mph N/A   Overcast
10:36 AM 41.0 °F 35.8 °F 26.6 °F 57% 30.06 in 10.0 mi West 8.1 mph 16.1 mph N/A   Overcast
10:57 AM 37.4 °F 31.4 °F 30.2 °F 75% 30.05 in 10.0 mi West 8.1 mph - N/A Rain Light Rain
11:37 AM 39.2 °F 34.2 °F 30.2 °F 70% 30.06 in 10.0 mi WNW 6.9 mph - N/A   Mostly Cloudy
11:57 AM 41.0 °F 35.8 °F 32.0 °F 70% 30.06 in 10.0 mi WNW 8.1 mph - N/A   Mostly Cloudy
12:17 PM 42.8 °F 38.0 °F 32.0 °F 66% 30.05 in 10.0 mi WNW 8.1 mph - N/A   Overcast
12:36 PM 44.6 °F 40.7 °F 32.0 °F 61% 30.05 in 10.0 mi West 6.9 mph - N/A   Mostly Cloudy
12:57 PM 46.4 °F 42.4 °F 32.0 °F 57% 30.05 in 10.0 mi West 8.1 mph - N/A   Scattered Clouds
1:17 PM 46.4 °F 42.9 °F 32.0 °F 57% 30.05 in 10.0 mi WNW 6.9 mph - N/A   Clear
1:36 PM 46.4 °F 42.9 °F 32.0 °F 57% 30.05 in 10.0 mi WNW 6.9 mph - N/A   Clear
1:57 PM 46.4 °F 42.9 °F 32.0 °F 57% 30.05 in 10.0 mi NNW 6.9 mph - N/A   Clear
2:17 PM 50.0 °F - 32.0 °F 50% 30.04 in 10.0 mi NNW 12.7 mph 17.3 mph N/A   Clear
2:36 PM 50.0 °F - 32.0 °F 50% 30.04 in 10.0 mi NW 10.4 mph 16.1 mph N/A   Clear
2:57 PM 50.0 °F - 32.0 °F 50% 30.03 in 10.0 mi NNW 9.2 mph - N/A   Clear
3:17 PM 51.8 °F - 32.0 °F 47% 30.03 in 10.0 mi NW 13.8 mph - N/A   Clear
3:36 PM 51.8 °F - 32.0 °F 47% 30.03 in 10.0 mi NNW 10.4 mph 18.4 mph N/A   Clear
3:57 PM 51.8 °F - 28.4 °F 41% 30.03 in 10.0 mi NW 12.7 mph 19.6 mph N/A   Clear
4:16 PM 51.8 °F - 26.6 °F 38% 30.04 in 10.0 mi NNW 17.3 mph 20.7 mph N/A   Clear
4:37 PM 50.0 °F - 23.0 °F 35% 30.04 in 10.0 mi NNW 11.5 mph 19.6 mph N/A   Clear
4:57 PM 50.0 °F - 23.0 °F 35% 30.04 in 10.0 mi NNW 10.4 mph 17.3 mph N/A   Clear
5:16 PM 50.0 °F - 24.8 °F 37% 30.04 in 10.0 mi NNW 11.5 mph 18.4 mph N/A   Clear
5:37 PM 48.2 °F - 26.6 °F 43% 30.05 in 10.0 mi NW 12.7 mph - N/A   Clear
5:57 PM 46.4 °F 40.1 °F 23.0 °F 40% 30.05 in 10.0 mi NW 15.0 mph - N/A   Clear
6:16 PM 46.4 °F 41.1 °F 21.2 °F 37% 30.05 in 10.0 mi NW 11.5 mph 18.4 mph N/A   Clear
6:37 PM 46.4 °F 42.4 °F 23.0 °F 40% 30.05 in 10.0 mi NW 8.1 mph - N/A   Clear
6:57 PM 46.4 °F 42.4 °F 23.0 °F 40% 30.06 in 10.0 mi NNW 8.1 mph - N/A   Clear
7:16 PM 44.6 °F 43.1 °F 23.0 °F 43% 30.06 in 10.0 mi North 3.5 mph - N/A   Clear
7:37 PM 41.0 °F 39.0 °F 21.2 °F 45% 30.06 in 10.0 mi NNW 3.5 mph - N/A   Clear
7:57 PM 41.0 °F - 23.0 °F 49% 30.06 in 10.0 mi Calm Calm - N/A   Clear
8:16 PM 39.2 °F - 23.0 °F 52% 30.07 in 10.0 mi Calm Calm - N/A   Clear
8:37 PM 33.8 °F - 24.8 °F 70% 30.07 in 10.0 mi Calm Calm - N/A   Clear
8:56 PM 37.4 °F 34.9 °F 26.6 °F 65% 30.09 in 10.0 mi NW 3.5 mph - N/A   Clear
9:17 PM 37.4 °F 33.8 °F 26.6 °F 65% 30.09 in 10.0 mi NW 4.6 mph - N/A   Clear
9:37 PM 35.6 °F 30.7 °F 23.0 °F 60% 30.10 in 10.0 mi NNW 5.8 mph - N/A   Clear
9:56 PM 33.8 °F 28.6 °F 23.0 °F 65% 30.11 in 10.0 mi NW 5.8 mph - N/A   Clear
10:17 PM 37.4 °F - 24.8 °F 60% 30.12 in 10.0 mi Calm Calm - N/A   Clear
10:36 PM 37.4 °F 34.9 °F 24.8 °F 60% 30.12 in 10.0 mi NW 3.5 mph - N/A   Clear
10:57 PM 33.8 °F - 24.8 °F 70% 30.12 in 10.0 mi Calm Calm - N/A   Clear
11:16 PM 33.8 °F 29.6 °F 23.0 °F 65% 30.12 in 10.0 mi NNW 4.6 mph - N/A   Clear
11:37 PM 33.8 °F 27.7 °F 23.0 °F 65% 30.13 in 10.0 mi NW 6.9 mph - N/A   Clear
11:57 PM 32.0 °F 27.5 °F 23.0 °F 69% 30.14 in 10.0 mi NNW 4.6 mph - N/A   Clear